Time;durP1;ratioP1;P1;durP2;ratioP2;P2;SDS_P1;SDS_P2;PMS_P1;PMS_P2;Temp;Humidity;BMP_temperature;BMP_pressure;BME280_temperature;BME280_humidity;BME280_pressure;Samples;Min_cycle;Max_cycle;Signal;HPM_P1;HPM_P2
2023/10/31 00:01:10;;;;;;;7.8;3.4;;;;;;;14.76;74.05;;;;;
2023/10/31 00:11:10;;;;;;;7.8;3.4;;;;;;;15.06;74.6;;;;;
2023/10/31 00:22:10;;;;;;;5;2.7;;;;;;;14.83;75.81;;;;;
2023/10/31 00:33:10;;;;;;;5;2.7;;;;;;;17.2;62.15;;;;;
2023/10/31 00:43:10;;;;;;;5;2.7;;;;;;;17.49;61.86;;;;;
2023/10/31 00:54:10;;;;;;;4.3;1.8;;;;;;;18.05;57.41;;;;;
2023/10/31 01:04:10;;;;;;;4.3;1.8;;;;;;;18.86;53.12;;;;;
2023/10/31 01:14:10;;;;;;;4.3;1.8;;;;;;;18.67;54.02;;;;;
2023/10/31 01:25:10;;;;;;;5.8;1.9;;;;;;;18.32;56.26;;;;;
2023/10/31 01:35:10;;;;;;;5.8;1.9;;;;;;;18.12;54.48;;;;;
2023/10/31 01:45:10;;;;;;;5.8;1.9;;;;;;;18.04;56.6;;;;;
2023/10/31 01:55:10;;;;;;;4.7;1.3;;;;;;;17.99;56.03;;;;;
2023/10/31 02:06:10;;;;;;;4.7;1.3;;;;;;;18.08;54.97;;;;;
2023/10/31 02:16:10;;;;;;;4.7;1.3;;;;;;;17.93;55.22;;;;;
2023/10/31 02:26:10;;;;;;;3.6;1.5;;;;;;;17.84;55.73;;;;;
2023/10/31 02:36:10;;;;;;;3.6;1.5;;;;;;;17.66;56.59;;;;;
2023/10/31 02:46:12;;;;;;;3.6;1.5;;;;;;;17.64;56.78;;;;;
2023/10/31 02:56:10;;;;;;;5.6;1.4;;;;;;;17.53;57.27;;;;;
2023/10/31 03:07:10;;;;;;;5.6;1.4;;;;;;;17.55;56.53;;;;;
2023/10/31 03:17:10;;;;;;;5.6;1.4;;;;;;;17.68;55.07;;;;;
2023/10/31 03:27:11;;;;;;;5.6;2.3;;;;;;;17.78;54.25;;;;;
2023/10/31 03:38:10;;;;;;;5.6;2.3;;;;;;;18.21;53;;;;;
2023/10/31 03:48:11;;;;;;;5.6;2.3;;;;;;;18.24;52.54;;;;;
2023/10/31 03:59:10;;;;;;;4.7;2.4;;;;;;;18.34;53.05;;;;;
2023/10/31 04:10:10;;;;;;;4.7;2.4;;;;;;;18.26;53.98;;;;;
2023/10/31 04:20:10;;;;;;;4.7;2.4;;;;;;;18.54;52.08;;;;;
2023/10/31 04:31:10;;;;;;;4.3;1.7;;;;;;;19.09;50.24;;;;;
2023/10/31 04:41:10;;;;;;;4.3;1.7;;;;;;;19.2;50.33;;;;;
2023/10/31 04:52:10;;;;;;;5.3;2;;;;;;;19.1;50.27;;;;;
2023/10/31 05:02:10;;;;;;;5.3;2;;;;;;;19.14;49.79;;;;;
2023/10/31 05:13:10;;;;;;;5.3;2;;;;;;;19.32;48.98;;;;;
2023/10/31 05:24:10;;;;;;;5.9;2.2;;;;;;;19.33;48.5;;;;;
2023/10/31 05:34:10;;;;;;;5.9;2.2;;;;;;;19.45;48.3;;;;;
2023/10/31 05:45:10;;;;;;;5.9;2.2;;;;;;;19.52;48.26;;;;;
2023/10/31 05:55:10;;;;;;;6.4;2;;;;;;;19.54;48.44;;;;;
2023/10/31 06:05:10;;;;;;;6.4;2;;;;;;;19.35;49.54;;;;;
2023/10/31 06:16:10;;;;;;;6.4;2;;;;;;;19.32;50.38;;;;;
2023/10/31 06:26:10;;;;;;;5.7;2.5;;;;;;;19.26;50.33;;;;;
2023/10/31 06:37:10;;;;;;;5.7;2.5;;;;;;;19.23;50.02;;;;;
2023/10/31 06:48:10;;;;;;;5.7;2.5;;;;;;;19.05;51.38;;;;;
2023/10/31 06:59:10;;;;;;;5.6;2.1;;;;;;;19.08;49.92;;;;;
2023/10/31 07:10:10;;;;;;;5.6;2.1;;;;;;;18.94;51.51;;;;;
2023/10/31 07:20:10;;;;;;;5.6;2.1;;;;;;;18.83;51.65;;;;;
2023/10/31 07:31:10;;;;;;;6.2;2;;;;;;;18.81;53.61;;;;;
2023/10/31 07:41:10;;;;;;;6.2;2;;;;;;;18.71;54.14;;;;;
2023/10/31 07:52:10;;;;;;;6.2;2;;;;;;;18.66;54.73;;;;;
2023/10/31 08:02:10;;;;;;;4.5;1.8;;;;;;;18.61;56.09;;;;;
2023/10/31 08:13:10;;;;;;;4.5;1.8;;;;;;;18.67;56.64;;;;;
2023/10/31 08:24:10;;;;;;;5.3;1.9;;;;;;;18.6;58.51;;;;;
2023/10/31 08:34:10;;;;;;;5.3;1.9;;;;;;;18.67;58.73;;;;;
2023/10/31 08:45:10;;;;;;;5.3;1.9;;;;;;;18.82;58.94;;;;;
2023/10/31 08:55:10;;;;;;;5.4;2.2;;;;;;;18.61;59.1;;;;;
2023/10/31 09:05:10;;;;;;;5.4;2.2;;;;;;;18.66;60.08;;;;;
2023/10/31 09:16:10;;;;;;;5.4;2.2;;;;;;;18.73;59.82;;;;;
2023/10/31 09:27:10;;;;;;;5.2;2.2;;;;;;;18.72;60.13;;;;;
2023/10/31 09:38:10;;;;;;;5.2;2.2;;;;;;;18.66;60.5;;;;;
2023/10/31 09:48:10;;;;;;;5.2;2.2;;;;;;;18.62;59.78;;;;;
2023/10/31 09:59:10;;;;;;;6.3;2.4;;;;;;;18.64;60.95;;;;;
2023/10/31 10:09:10;;;;;;;6.3;2.4;;;;;;;18.6;60.95;;;;;
2023/10/31 10:20:10;;;;;;;6.3;2.4;;;;;;;18.44;61.3;;;;;
2023/10/31 10:30:10;;;;;;;7.9;2.6;;;;;;;18.3;60.45;;;;;
2023/10/31 10:41:10;;;;;;;7.9;2.6;;;;;;;18.25;60.98;;;;;
2023/10/31 10:52:10;;;;;;;7.9;2.6;;;;;;;17.96;60.39;;;;;
2023/10/31 11:02:10;;;;;;;7.8;3.7;;;;;;;17.62;60.05;;;;;
2023/10/31 11:13:10;;;;;;;7.8;3.7;;;;;;;17.46;60.75;;;;;
2023/10/31 11:23:10;;;;;;;5.2;2.6;;;;;;;17.24;61.53;;;;;
2023/10/31 11:34:10;;;;;;;5.2;2.6;;;;;;;17.13;62.6;;;;;
2023/10/31 11:45:10;;;;;;;5.2;2.6;;;;;;;16.9;62.73;;;;;
2023/10/31 11:55:10;;;;;;;4.5;2.2;;;;;;;16.79;63.38;;;;;
2023/10/31 12:06:10;;;;;;;4.5;2.2;;;;;;;16.86;64.05;;;;;
2023/10/31 12:16:10;;;;;;;4.5;2.2;;;;;;;17.41;63.49;;;;;
2023/10/31 12:26:10;;;;;;;4.9;2.4;;;;;;;17.62;61.94;;;;;
2023/10/31 12:37:10;;;;;;;4.9;2.4;;;;;;;17.77;61.33;;;;;
2023/10/31 12:48:11;;;;;;;4.9;2.4;;;;;;;18.01;63.21;;;;;
2023/10/31 12:58:14;;;;;;;7;2.6;;;;;;;17.64;62.83;;;;;
2023/10/31 13:09:12;;;;;;;7;2.6;;;;;;;17.37;62.99;;;;;
2023/10/31 13:19:10;;;;;;;7;2.6;;;;;;;17.18;63.98;;;;;
2023/10/31 13:29:11;;;;;;;4.8;2.4;;;;;;;17.02;64.04;;;;;
2023/10/31 13:40:11;;;;;;;4.8;2.4;;;;;;;16.63;68.03;;;;;
2023/10/31 13:50:10;;;;;;;4.8;2.4;;;;;;;16.39;70;;;;;
2023/10/31 14:01:10;;;;;;;5.4;2.9;;;;;;;15.86;72.49;;;;;
2023/10/31 14:11:11;;;;;;;5.4;2.9;;;;;;;15.61;75.15;;;;;
2023/10/31 14:22:10;;;;;;;5.4;2.9;;;;;;;15.32;77.82;;;;;
2023/10/31 14:32:10;;;;;;;5.9;3.8;;;;;;;15.1;78.37;;;;;
2023/10/31 14:42:10;;;;;;;5.9;3.8;;;;;;;14.75;80.9;;;;;
2023/10/31 14:53:10;;;;;;;7.6;3.9;;;;;;;14.59;82.08;;;;;
2023/10/31 15:03:10;;;;;;;7.6;3.9;;;;;;;14.33;83.23;;;;;
2023/10/31 15:14:10;;;;;;;7.6;3.9;;;;;;;14.37;82.8;;;;;
2023/10/31 15:25:10;;;;;;;7.9;4.8;;;;;;;14.22;83.93;;;;;
2023/10/31 15:35:10;;;;;;;7.9;4.8;;;;;;;13.91;86.13;;;;;
2023/10/31 15:46:10;;;;;;;7.9;4.8;;;;;;;13.53;87.76;;;;;
2023/10/31 15:57:10;;;;;;;11.1;6.7;;;;;;;13.56;87.64;;;;;
2023/10/31 16:07:10;;;;;;;11.1;6.7;;;;;;;13.32;88.34;;;;;
2023/10/31 16:18:11;;;;;;;11.1;6.7;;;;;;;13.26;88.5;;;;;
2023/10/31 16:29:14;;;;;;;11;7.1;;;;;;;13.34;87.66;;;;;
2023/10/31 16:40:10;;;;;;;11;7.1;;;;;;;13.3;87.46;;;;;
2023/10/31 16:50:10;;;;;;;11;7.1;;;;;;;13.33;87.1;;;;;
2023/10/31 17:01:10;;;;;;;10;6.8;;;;;;;13.3;87.01;;;;;
2023/10/31 17:12:10;;;;;;;10;6.8;;;;;;;13.39;86.98;;;;;
2023/10/31 17:22:10;;;;;;;10;6.8;;;;;;;13.33;87.22;;;;;
2023/10/31 17:32:10;;;;;;;12.5;6.6;;;;;;;13.17;87.71;;;;;
2023/10/31 17:42:10;;;;;;;12.5;6.6;;;;;;;13.21;87.66;;;;;
2023/10/31 17:52:10;;;;;;;12.5;6.6;;;;;;;13.03;88.26;;;;;
2023/10/31 18:03:10;;;;;;;13.1;6.5;;;;;;;12.68;87.87;;;;;
2023/10/31 18:14:10;;;;;;;13.1;6.5;;;;;;;12.16;87.18;;;;;
2023/10/31 18:24:10;;;;;;;7.9;4.5;;;;;;;11.74;88.21;;;;;
2023/10/31 18:34:11;;;;;;;7.9;4.5;;;;;;;11.71;88.51;;;;;
2023/10/31 18:45:14;;;;;;;7.9;4.5;;;;;;;11.5;89.4;;;;;
2023/10/31 18:56:10;;;;;;;8.1;4.5;;;;;;;11.37;89.72;;;;;
2023/10/31 19:06:10;;;;;;;8.1;4.5;;;;;;;11.53;89.27;;;;;
2023/10/31 19:17:10;;;;;;;8.1;4.5;;;;;;;11.47;89.26;;;;;
2023/10/31 19:28:10;;;;;;;8;3.6;;;;;;;11.39;88.75;;;;;
2023/10/31 19:39:10;;;;;;;8;3.6;;;;;;;11.14;89.09;;;;;
2023/10/31 19:49:10;;;;;;;8;3.6;;;;;;;11.03;88.81;;;;;
2023/10/31 19:59:10;;;;;;;7.5;4;;;;;;;10.99;89.1;;;;;
2023/10/31 20:10:10;;;;;;;7.5;4;;;;;;;10.98;88.94;;;;;
2023/10/31 20:20:11;;;;;;;7.5;4;;;;;;;10.9;89.11;;;;;
2023/10/31 20:30:10;;;;;;;7.6;4;;;;;;;10.92;88.88;;;;;
2023/10/31 20:41:10;;;;;;;7.6;4;;;;;;;10.9;88.31;;;;;
2023/10/31 20:51:10;;;;;;;7.6;4;;;;;;;10.77;88.55;;;;;
2023/10/31 21:01:10;;;;;;;6.4;3.8;;;;;;;10.84;87.9;;;;;
2023/10/31 21:11:10;;;;;;;6.4;3.8;;;;;;;10.7;87.34;;;;;
2023/10/31 21:22:10;;;;;;;4.2;2.2;;;;;;;10.64;87.43;;;;;
2023/10/31 21:32:10;;;;;;;4.2;2.2;;;;;;;10.59;87.46;;;;;
2023/10/31 21:43:10;;;;;;;4.2;2.2;;;;;;;10.66;87.07;;;;;
2023/10/31 21:54:10;;;;;;;5.9;3.4;;;;;;;10.54;86.88;;;;;
2023/10/31 22:04:10;;;;;;;5.9;3.4;;;;;;;10.44;86.48;;;;;
2023/10/31 22:14:10;;;;;;;5.9;3.4;;;;;;;10.45;86.66;;;;;
2023/10/31 22:24:10;;;;;;;5.3;1.9;;;;;;;10.47;86.1;;;;;
2023/10/31 22:35:10;;;;;;;5.3;1.9;;;;;;;10.67;86;;;;;
2023/10/31 22:46:10;;;;;;;5.3;1.9;;;;;;;10.61;86.15;;;;;
2023/10/31 22:56:10;;;;;;;4.6;2.8;;;;;;;10.61;86.5;;;;;
2023/10/31 23:06:10;;;;;;;4.6;2.8;;;;;;;10.64;86.42;;;;;
2023/10/31 23:16:10;;;;;;;4.6;2.8;;;;;;;10.69;86.37;;;;;
2023/10/31 23:26:10;;;;;;;4.2;2.4;;;;;;;10.69;85.99;;;;;
2023/10/31 23:37:10;;;;;;;4.2;2.4;;;;;;;10.64;86.19;;;;;
2023/10/31 23:47:10;;;;;;;4.2;2.4;;;;;;;10.57;86.25;;;;;
2023/10/31 23:58:10;;;;;;;4.7;2.2;;;;;;;10.68;86.11;;;;;
